sensor_id;sensor_type;location;lat;lon;timestamp;pressure;altitude;pressure_sealevel;temperature;humidity
82178;BME280;71761;21.336;-157.724;2023-07-29T00:00:14;101540.75;;;31.73;41.18
82178;BME280;71761;21.336;-157.724;2023-07-29T00:02:39;101543.13;;;31.11;42.10
82178;BME280;71761;21.336;-157.724;2023-07-29T00:05:05;101543.29;;;31.88;41.39
82178;BME280;71761;21.336;-157.724;2023-07-29T00:07:29;101539.99;;;31.43;41.55
82178;BME280;71761;21.336;-157.724;2023-07-29T00:09:55;101547.93;;;31.94;41.07
82178;BME280;71761;21.336;-157.724;2023-07-29T00:12:20;101540.44;;;31.98;41.03
82178;BME280;71761;21.336;-157.724;2023-07-29T00:14:46;101542.79;;;30.62;42.28
82178;BME280;71761;21.336;-157.724;2023-07-29T00:17:11;101538.18;;;31.39;41.61
82178;BME280;71761;21.336;-157.724;2023-07-29T00:19:36;101533.13;;;31.31;41.58
82178;BME280;71761;21.336;-157.724;2023-07-29T00:22:02;101530.40;;;31.51;41.02
82178;BME280;71761;21.336;-157.724;2023-07-29T00:24:27;101532.17;;;31.41;41.41
82178;BME280;71761;21.336;-157.724;2023-07-29T00:26:52;101533.19;;;30.78;41.50
82178;BME280;71761;21.336;-157.724;2023-07-29T00:29:18;101531.94;;;30.92;41.66
82178;BME280;71761;21.336;-157.724;2023-07-29T00:31:43;101539.37;;;30.96;42.28
82178;BME280;71761;21.336;-157.724;2023-07-29T00:34:09;101532.45;;;30.70;42.57
82178;BME280;71761;21.336;-157.724;2023-07-29T00:36:34;101532.62;;;30.91;42.10
82178;BME280;71761;21.336;-157.724;2023-07-29T00:38:59;101535.16;;;31.28;42.11
82178;BME280;71761;21.336;-157.724;2023-07-29T00:41:26;101527.27;;;30.91;42.72
82178;BME280;71761;21.336;-157.724;2023-07-29T00:43:49;101524.65;;;31.30;41.92
82178;BME280;71761;21.336;-157.724;2023-07-29T00:46:15;101519.27;;;31.77;42.02
82178;BME280;71761;21.336;-157.724;2023-07-29T00:48:40;101525.12;;;31.12;42.42
82178;BME280;71761;21.336;-157.724;2023-07-29T00:51:05;101522.52;;;30.99;42.72
82178;BME280;71761;21.336;-157.724;2023-07-29T00:53:31;101520.89;;;30.57;43.03
82178;BME280;71761;21.336;-157.724;2023-07-29T00:55:56;101516.77;;;31.04;42.38
82178;BME280;71761;21.336;-157.724;2023-07-29T00:58:22;101519.64;;;30.91;42.78
82178;BME280;71761;21.336;-157.724;2023-07-29T01:00:48;101523.23;;;30.82;42.66
82178;BME280;71761;21.336;-157.724;2023-07-29T01:03:13;101516.09;;;30.80;42.78
82178;BME280;71761;21.336;-157.724;2023-07-29T01:05:46;101507.01;;;31.01;42.79
82178;BME280;71761;21.336;-157.724;2023-07-29T01:08:09;101504.73;;;30.63;43.14
82178;BME280;71761;21.336;-157.724;2023-07-29T01:10:37;101498.55;;;31.32;42.67
82178;BME280;71761;21.336;-157.724;2023-07-29T01:13:01;101501.30;;;31.03;42.60
82178;BME280;71761;21.336;-157.724;2023-07-29T01:15:24;101499.85;;;29.94;43.92
82178;BME280;71761;21.336;-157.724;2023-07-29T01:17:48;101498.40;;;31.13;42.63
82178;BME280;71761;21.336;-157.724;2023-07-29T01:20:15;101493.94;;;30.63;42.97
82178;BME280;71761;21.336;-157.724;2023-07-29T01:22:37;101491.61;;;30.79;43.01
82178;BME280;71761;21.336;-157.724;2023-07-29T01:25:02;101481.89;;;30.60;42.86
82178;BME280;71761;21.336;-157.724;2023-07-29T01:27:27;101483.73;;;30.60;43.27
82178;BME280;71761;21.336;-157.724;2023-07-29T01:29:53;101488.14;;;30.13;43.59
82178;BME280;71761;21.336;-157.724;2023-07-29T01:32:24;101485.96;;;30.57;43.21
82178;BME280;71761;21.336;-157.724;2023-07-29T01:34:47;101487.11;;;30.68;43.11
82178;BME280;71761;21.336;-157.724;2023-07-29T01:37:10;101484.02;;;30.40;43.18
82178;BME280;71761;21.336;-157.724;2023-07-29T01:39:35;101483.04;;;30.36;43.01
82178;BME280;71761;21.336;-157.724;2023-07-29T01:41:59;101478.87;;;30.02;43.38
82178;BME280;71761;21.336;-157.724;2023-07-29T01:44:24;101475.94;;;30.05;43.52
82178;BME280;71761;21.336;-157.724;2023-07-29T01:46:50;101479.97;;;30.62;42.57
82178;BME280;71761;21.336;-157.724;2023-07-29T01:49:15;101481.56;;;30.92;42.44
82178;BME280;71761;21.336;-157.724;2023-07-29T01:51:40;101479.46;;;30.14;43.54
82178;BME280;71761;21.336;-157.724;2023-07-29T01:54:06;101479.15;;;30.32;43.22
82178;BME280;71761;21.336;-157.724;2023-07-29T01:56:31;101470.70;;;30.20;43.16
82178;BME280;71761;21.336;-157.724;2023-07-29T01:58:56;101468.52;;;30.44;43.33
82178;BME280;71761;21.336;-157.724;2023-07-29T02:01:22;101467.09;;;30.65;42.75
82178;BME280;71761;21.336;-157.724;2023-07-29T02:03:47;101469.08;;;30.20;43.42
82178;BME280;71761;21.336;-157.724;2023-07-29T02:06:13;101467.55;;;30.27;43.76
82178;BME280;71761;21.336;-157.724;2023-07-29T02:08:39;101460.56;;;30.81;43.06
82178;BME280;71761;21.336;-157.724;2023-07-29T02:11:03;101460.21;;;30.69;42.89
82178;BME280;71761;21.336;-157.724;2023-07-29T02:13:29;101461.85;;;30.67;42.65
82178;BME280;71761;21.336;-157.724;2023-07-29T02:15:54;101461.87;;;30.42;43.36
82178;BME280;71761;21.336;-157.724;2023-07-29T02:18:20;101463.32;;;30.68;42.76
82178;BME280;71761;21.336;-157.724;2023-07-29T02:20:45;101462.96;;;29.69;43.90
82178;BME280;71761;21.336;-157.724;2023-07-29T02:23:10;101471.62;;;29.99;44.10
82178;BME280;71761;21.336;-157.724;2023-07-29T02:25:37;101469.64;;;29.52;44.41
82178;BME280;71761;21.336;-157.724;2023-07-29T02:28:01;101467.14;;;29.62;44.29
82178;BME280;71761;21.336;-157.724;2023-07-29T02:30:27;101467.25;;;30.05;43.80
82178;BME280;71761;21.336;-157.724;2023-07-29T02:32:52;101468.41;;;30.16;43.66
82178;BME280;71761;21.336;-157.724;2023-07-29T02:35:18;101470.99;;;29.46;44.11
82178;BME280;71761;21.336;-157.724;2023-07-29T02:37:43;101468.14;;;30.11;43.85
82178;BME280;71761;21.336;-157.724;2023-07-29T02:40:09;101465.21;;;30.14;43.90
82178;BME280;71761;21.336;-157.724;2023-07-29T02:42:33;101464.81;;;29.84;44.22
82178;BME280;71761;21.336;-157.724;2023-07-29T02:44:59;101462.35;;;30.29;43.79
82178;BME280;71761;21.336;-157.724;2023-07-29T02:47:24;101463.37;;;29.82;44.42
82178;BME280;71761;21.336;-157.724;2023-07-29T02:49:49;101462.18;;;29.60;44.57
82178;BME280;71761;21.336;-157.724;2023-07-29T02:52:14;101470.31;;;29.31;45.49
82178;BME280;71761;21.336;-157.724;2023-07-29T02:54:41;101464.31;;;29.63;44.65
82178;BME280;71761;21.336;-157.724;2023-07-29T02:57:05;101469.90;;;29.69;44.58
82178;BME280;71761;21.336;-157.724;2023-07-29T02:59:30;101462.64;;;29.64;44.79
82178;BME280;71761;21.336;-157.724;2023-07-29T03:01:55;101463.62;;;29.80;44.96
82178;BME280;71761;21.336;-157.724;2023-07-29T03:04:21;101464.90;;;29.20;46.42
82178;BME280;71761;21.336;-157.724;2023-07-29T03:06:46;101460.13;;;29.66;45.79
82178;BME280;71761;21.336;-157.724;2023-07-29T03:09:11;101460.73;;;29.68;45.45
82178;BME280;71761;21.336;-157.724;2023-07-29T03:11:37;101460.34;;;29.37;44.94
82178;BME280;71761;21.336;-157.724;2023-07-29T03:14:02;101460.97;;;29.22;45.82
82178;BME280;71761;21.336;-157.724;2023-07-29T03:16:27;101456.60;;;29.18;45.48
82178;BME280;71761;21.336;-157.724;2023-07-29T03:18:53;101458.19;;;29.52;45.01
82178;BME280;71761;21.336;-157.724;2023-07-29T03:21:18;101460.83;;;29.74;44.73
82178;BME280;71761;21.336;-157.724;2023-07-29T03:23:43;101466.45;;;29.68;45.24
82178;BME280;71761;21.336;-157.724;2023-07-29T03:26:08;101462.89;;;29.26;45.12
82178;BME280;71761;21.336;-157.724;2023-07-29T03:28:34;101466.88;;;29.30;44.87
82178;BME280;71761;21.336;-157.724;2023-07-29T03:31:00;101463.49;;;29.48;44.51
82178;BME280;71761;21.336;-157.724;2023-07-29T03:33:25;101470.74;;;28.97;45.68
82178;BME280;71761;21.336;-157.724;2023-07-29T03:35:50;101474.97;;;28.99;45.55
82178;BME280;71761;21.336;-157.724;2023-07-29T03:38:16;101478.29;;;29.44;45.09
82178;BME280;71761;21.336;-157.724;2023-07-29T03:40:41;101477.54;;;28.84;45.93
82178;BME280;71761;21.336;-157.724;2023-07-29T03:43:06;101482.33;;;29.11;45.15
82178;BME280;71761;21.336;-157.724;2023-07-29T03:45:32;101485.69;;;28.88;45.94
82178;BME280;71761;21.336;-157.724;2023-07-29T03:47:56;101484.53;;;29.64;44.83
82178;BME280;71761;21.336;-157.724;2023-07-29T03:50:22;101484.30;;;29.62;44.99
82178;BME280;71761;21.336;-157.724;2023-07-29T03:52:47;101483.71;;;29.07;45.10
82178;BME280;71761;21.336;-157.724;2023-07-29T03:55:13;101487.40;;;28.81;45.43
82178;BME280;71761;21.336;-157.724;2023-07-29T03:57:38;101489.88;;;29.43;44.98
82178;BME280;71761;21.336;-157.724;2023-07-29T04:00:04;101493.25;;;29.24;45.36
82178;BME280;71761;21.336;-157.724;2023-07-29T04:02:29;101494.48;;;29.57;44.64
82178;BME280;71761;21.336;-157.724;2023-07-29T04:04:54;101493.26;;;29.37;45.21
82178;BME280;71761;21.336;-157.724;2023-07-29T04:07:20;101499.45;;;30.05;44.57
82178;BME280;71761;21.336;-157.724;2023-07-29T04:09:45;101501.52;;;29.50;45.22
82178;BME280;71761;21.336;-157.724;2023-07-29T04:12:10;101507.53;;;29.76;44.55
82178;BME280;71761;21.336;-157.724;2023-07-29T04:14:36;101507.27;;;29.36;45.37
82178;BME280;71761;21.336;-157.724;2023-07-29T04:17:01;101508.87;;;29.32;45.51
82178;BME280;71761;21.336;-157.724;2023-07-29T04:19:27;101515.33;;;28.74;45.66
82178;BME280;71761;21.336;-157.724;2023-07-29T04:21:52;101517.00;;;29.38;45.53
82178;BME280;71761;21.336;-157.724;2023-07-29T04:24:17;101523.64;;;29.24;45.61
82178;BME280;71761;21.336;-157.724;2023-07-29T04:26:43;101529.22;;;28.96;45.84
82178;BME280;71761;21.336;-157.724;2023-07-29T04:29:08;101533.91;;;29.15;45.17
82178;BME280;71761;21.336;-157.724;2023-07-29T04:31:34;101536.41;;;28.81;45.60
82178;BME280;71761;21.336;-157.724;2023-07-29T04:33:59;101541.30;;;28.70;45.86
82178;BME280;71761;21.336;-157.724;2023-07-29T04:36:25;101543.53;;;29.05;44.84
82178;BME280;71761;21.336;-157.724;2023-07-29T04:38:50;101543.48;;;28.59;45.54
82178;BME280;71761;21.336;-157.724;2023-07-29T04:41:15;101553.92;;;28.67;45.90
82178;BME280;71761;21.336;-157.724;2023-07-29T04:43:41;101552.66;;;28.69;45.59
82178;BME280;71761;21.336;-157.724;2023-07-29T04:46:08;101554.41;;;28.80;45.38
82178;BME280;71761;21.336;-157.724;2023-07-29T04:48:31;101560.20;;;28.49;45.72
82178;BME280;71761;21.336;-157.724;2023-07-29T04:50:57;101561.33;;;28.28;46.03
82178;BME280;71761;21.336;-157.724;2023-07-29T04:53:22;101563.94;;;28.56;45.35
82178;BME280;71761;21.336;-157.724;2023-07-29T04:55:48;101560.37;;;28.79;45.14
82178;BME280;71761;21.336;-157.724;2023-07-29T04:58:13;101566.16;;;28.19;46.09
82178;BME280;71761;21.336;-157.724;2023-07-29T05:00:38;101572.92;;;28.53;45.83
82178;BME280;71761;21.336;-157.724;2023-07-29T05:03:04;101574.42;;;28.54;45.84
82178;BME280;71761;21.336;-157.724;2023-07-29T05:05:29;101567.36;;;28.89;45.53
82178;BME280;71761;21.336;-157.724;2023-07-29T05:07:55;101576.44;;;28.22;46.34
82178;BME280;71761;21.336;-157.724;2023-07-29T05:10:20;101574.45;;;28.29;46.08
82178;BME280;71761;21.336;-157.724;2023-07-29T05:12:45;101577.23;;;28.98;45.11
82178;BME280;71761;21.336;-157.724;2023-07-29T05:15:11;101583.01;;;28.54;45.81
82178;BME280;71761;21.336;-157.724;2023-07-29T05:17:36;101586.31;;;28.36;45.98
82178;BME280;71761;21.336;-157.724;2023-07-29T05:20:02;101587.81;;;28.55;45.68
82178;BME280;71761;21.336;-157.724;2023-07-29T05:22:27;101590.60;;;28.65;45.09
82178;BME280;71761;21.336;-157.724;2023-07-29T05:24:52;101592.46;;;28.67;45.39
82178;BME280;71761;21.336;-157.724;2023-07-29T05:27:18;101598.15;;;28.80;44.83
82178;BME280;71761;21.336;-157.724;2023-07-29T05:29:43;101593.31;;;28.29;45.28
82178;BME280;71761;21.336;-157.724;2023-07-29T05:32:09;101597.57;;;28.50;44.95
82178;BME280;71761;21.336;-157.724;2023-07-29T05:34:34;101594.19;;;28.31;45.28
82178;BME280;71761;21.336;-157.724;2023-07-29T05:37:00;101602.29;;;28.42;44.96
82178;BME280;71761;21.336;-157.724;2023-07-29T05:39:25;101599.84;;;28.32;45.42
82178;BME280;71761;21.336;-157.724;2023-07-29T05:41:50;101602.56;;;28.06;45.01
82178;BME280;71761;21.336;-157.724;2023-07-29T05:44:16;101606.12;;;28.21;45.48
82178;BME280;71761;21.336;-157.724;2023-07-29T05:46:41;101604.78;;;28.50;44.90
82178;BME280;71761;21.336;-157.724;2023-07-29T05:49:06;101610.53;;;28.37;45.16
82178;BME280;71761;21.336;-157.724;2023-07-29T05:51:32;101611.03;;;28.16;45.23
82178;BME280;71761;21.336;-157.724;2023-07-29T05:53:57;101616.66;;;28.05;45.45
82178;BME280;71761;21.336;-157.724;2023-07-29T05:56:23;101619.81;;;27.84;45.32
82178;BME280;71761;21.336;-157.724;2023-07-29T05:58:48;101624.55;;;27.96;45.57
82178;BME280;71761;21.336;-157.724;2023-07-29T06:01:13;101632.97;;;27.81;45.78
82178;BME280;71761;21.336;-157.724;2023-07-29T06:03:39;101633.08;;;27.80;45.39
82178;BME280;71761;21.336;-157.724;2023-07-29T06:06:04;101636.50;;;28.51;45.04
82178;BME280;71761;21.336;-157.724;2023-07-29T06:08:29;101637.16;;;28.28;45.17
82178;BME280;71761;21.336;-157.724;2023-07-29T06:10:55;101635.74;;;28.37;44.87
82178;BME280;71761;21.336;-157.724;2023-07-29T06:13:20;101643.45;;;27.84;45.60
82178;BME280;71761;21.336;-157.724;2023-07-29T06:15:46;101643.46;;;28.40;45.22
82178;BME280;71761;21.336;-157.724;2023-07-29T06:18:10;101643.80;;;27.78;45.46
82178;BME280;71761;21.336;-157.724;2023-07-29T06:20:36;101647.06;;;27.81;45.82
82178;BME280;71761;21.336;-157.724;2023-07-29T06:23:03;101648.41;;;28.06;45.04
82178;BME280;71761;21.336;-157.724;2023-07-29T06:25:27;101651.29;;;27.96;45.22
82178;BME280;71761;21.336;-157.724;2023-07-29T06:27:53;101648.48;;;28.00;45.55
82178;BME280;71761;21.336;-157.724;2023-07-29T06:30:18;101651.74;;;27.93;45.73
82178;BME280;71761;21.336;-157.724;2023-07-29T06:32:43;101654.81;;;27.65;46.65
82178;BME280;71761;21.336;-157.724;2023-07-29T06:35:09;101650.51;;;28.20;45.52
82178;BME280;71761;21.336;-157.724;2023-07-29T06:37:34;101653.88;;;28.06;45.36
82178;BME280;71761;21.336;-157.724;2023-07-29T06:40:00;101655.35;;;28.09;46.16
82178;BME280;71761;21.336;-157.724;2023-07-29T06:42:24;101657.13;;;27.91;46.20
82178;BME280;71761;21.336;-157.724;2023-07-29T06:44:50;101652.46;;;28.02;46.50
82178;BME280;71761;21.336;-157.724;2023-07-29T06:47:15;101650.58;;;28.15;46.28
82178;BME280;71761;21.336;-157.724;2023-07-29T06:49:41;101651.47;;;28.11;46.28
82178;BME280;71761;21.336;-157.724;2023-07-29T06:52:07;101654.48;;;27.73;46.50
82178;BME280;71761;21.336;-157.724;2023-07-29T06:54:31;101658.81;;;27.82;46.68
82178;BME280;71761;21.336;-157.724;2023-07-29T06:56:57;101664.03;;;27.41;46.58
82178;BME280;71761;21.336;-157.724;2023-07-29T06:59:22;101667.06;;;27.40;47.25
82178;BME280;71761;21.336;-157.724;2023-07-29T07:01:48;101669.91;;;27.33;46.93
82178;BME280;71761;21.336;-157.724;2023-07-29T07:04:13;101669.66;;;27.77;46.17
82178;BME280;71761;21.336;-157.724;2023-07-29T07:06:38;101674.13;;;27.69;46.46
82178;BME280;71761;21.336;-157.724;2023-07-29T07:09:04;101677.05;;;27.43;46.90
82178;BME280;71761;21.336;-157.724;2023-07-29T07:11:29;101677.05;;;27.59;46.69
82178;BME280;71761;21.336;-157.724;2023-07-29T07:13:55;101670.52;;;27.85;46.29
82178;BME280;71761;21.336;-157.724;2023-07-29T07:16:20;101667.62;;;26.99;47.19
82178;BME280;71761;21.336;-157.724;2023-07-29T07:18:45;101668.36;;;27.48;46.86
82178;BME280;71761;21.336;-157.724;2023-07-29T07:21:11;101665.94;;;27.73;46.38
82178;BME280;71761;21.336;-157.724;2023-07-29T07:23:36;101671.73;;;27.30;46.72
82178;BME280;71761;21.336;-157.724;2023-07-29T07:26:01;101678.26;;;27.77;46.75
82178;BME280;71761;21.336;-157.724;2023-07-29T07:28:27;101679.35;;;27.68;46.53
82178;BME280;71761;21.336;-157.724;2023-07-29T07:30:52;101685.51;;;27.22;47.23
82178;BME280;71761;21.336;-157.724;2023-07-29T07:33:17;101686.82;;;27.31;47.11
82178;BME280;71761;21.336;-157.724;2023-07-29T07:35:43;101687.27;;;26.92;47.69
82178;BME280;71761;21.336;-157.724;2023-07-29T07:38:08;101687.85;;;27.24;47.22
82178;BME280;71761;21.336;-157.724;2023-07-29T07:40:34;101690.82;;;27.48;46.88
82178;BME280;71761;21.336;-157.724;2023-07-29T07:42:59;101692.72;;;27.06;47.54
82178;BME280;71761;21.336;-157.724;2023-07-29T07:45:24;101692.77;;;27.09;47.48
82178;BME280;71761;21.336;-157.724;2023-07-29T07:47:51;101697.84;;;26.77;47.94
82178;BME280;71761;21.336;-157.724;2023-07-29T07:50:15;101696.71;;;26.86;48.01
82178;BME280;71761;21.336;-157.724;2023-07-29T07:52:41;101697.47;;;26.80;47.64
82178;BME280;71761;21.336;-157.724;2023-07-29T07:55:07;101703.06;;;27.02;47.32
82178;BME280;71761;21.336;-157.724;2023-07-29T07:57:31;101704.57;;;27.07;47.34
82178;BME280;71761;21.336;-157.724;2023-07-29T07:59:57;101707.34;;;27.04;47.35
82178;BME280;71761;21.336;-157.724;2023-07-29T08:02:22;101707.11;;;26.97;47.90
82178;BME280;71761;21.336;-157.724;2023-07-29T08:04:49;101713.67;;;26.48;47.94
82178;BME280;71761;21.336;-157.724;2023-07-29T08:07:13;101713.15;;;26.81;47.69
82178;BME280;71761;21.336;-157.724;2023-07-29T08:09:39;101712.51;;;27.07;47.28
82178;BME280;71761;21.336;-157.724;2023-07-29T08:12:04;101709.07;;;26.99;47.28
82178;BME280;71761;21.336;-157.724;2023-07-29T08:14:29;101704.50;;;27.18;47.04
82178;BME280;71761;21.336;-157.724;2023-07-29T08:16:55;101708.05;;;27.58;46.39
82178;BME280;71761;21.336;-157.724;2023-07-29T08:19:20;101709.51;;;27.09;46.74
82178;BME280;71761;21.336;-157.724;2023-07-29T08:21:46;101709.03;;;27.28;46.83
82178;BME280;71761;21.336;-157.724;2023-07-29T08:24:11;101711.59;;;27.78;46.07
82178;BME280;71761;21.336;-157.724;2023-07-29T08:26:36;101713.96;;;27.70;46.23
82178;BME280;71761;21.336;-157.724;2023-07-29T08:29:01;101712.22;;;27.10;46.76
82178;BME280;71761;21.336;-157.724;2023-07-29T08:31:27;101713.78;;;27.31;46.75
82178;BME280;71761;21.336;-157.724;2023-07-29T08:33:53;101712.14;;;27.40;46.68
82178;BME280;71761;21.336;-157.724;2023-07-29T08:36:18;101707.31;;;27.68;45.83
82178;BME280;71761;21.336;-157.724;2023-07-29T08:38:43;101708.55;;;26.99;47.37
82178;BME280;71761;21.336;-157.724;2023-07-29T08:41:13;101705.79;;;26.94;47.08
82178;BME280;71761;21.336;-157.724;2023-07-29T08:43:34;101710.38;;;27.81;46.06
82178;BME280;71761;21.336;-157.724;2023-07-29T08:46:00;101714.42;;;27.22;46.62
82178;BME280;71761;21.336;-157.724;2023-07-29T08:48:31;101717.44;;;27.67;46.34
82178;BME280;71761;21.336;-157.724;2023-07-29T08:50:51;101713.72;;;27.39;46.60
82178;BME280;71761;21.336;-157.724;2023-07-29T08:53:16;101712.34;;;27.10;46.97
82178;BME280;71761;21.336;-157.724;2023-07-29T08:55:41;101712.53;;;26.90;47.34
82178;BME280;71761;21.336;-157.724;2023-07-29T08:58:07;101712.94;;;27.42;46.86
82178;BME280;71761;21.336;-157.724;2023-07-29T09:00:32;101712.97;;;27.56;46.22
82178;BME280;71761;21.336;-157.724;2023-07-29T09:02:57;101706.16;;;27.50;46.77
82178;BME280;71761;21.336;-157.724;2023-07-29T09:05:22;101705.55;;;27.44;46.92
82178;BME280;71761;21.336;-157.724;2023-07-29T09:07:48;101701.02;;;26.38;48.50
82178;BME280;71761;21.336;-157.724;2023-07-29T09:10:14;101698.57;;;27.23;47.13
82178;BME280;71761;21.336;-157.724;2023-07-29T09:12:39;101696.06;;;26.95;47.57
82178;BME280;71761;21.336;-157.724;2023-07-29T09:15:04;101691.14;;;27.12;47.32
82178;BME280;71761;21.336;-157.724;2023-07-29T09:17:33;101692.51;;;27.59;46.63
82178;BME280;71761;21.336;-157.724;2023-07-29T09:19:55;101697.34;;;27.21;46.96
82178;BME280;71761;21.336;-157.724;2023-07-29T09:22:21;101693.96;;;27.13;47.34
82178;BME280;71761;21.336;-157.724;2023-07-29T09:24:46;101691.31;;;26.87;47.77
82178;BME280;71761;21.336;-157.724;2023-07-29T09:29:37;101682.77;;;27.13;47.05
82178;BME280;71761;21.336;-157.724;2023-07-29T09:34:28;101677.56;;;27.04;47.54
82178;BME280;71761;21.336;-157.724;2023-07-29T09:36:53;101678.85;;;26.83;48.10
82178;BME280;71761;21.336;-157.724;2023-07-29T09:39:18;101674.97;;;27.02;47.72
82178;BME280;71761;21.336;-157.724;2023-07-29T09:41:48;101673.65;;;27.23;47.44
82178;BME280;71761;21.336;-157.724;2023-07-29T09:44:10;101673.59;;;27.13;48.07
82178;BME280;71761;21.336;-157.724;2023-07-29T09:46:36;101667.46;;;27.24;47.58
82178;BME280;71761;21.336;-157.724;2023-07-29T09:49:01;101671.42;;;27.10;47.98
82178;BME280;71761;21.336;-157.724;2023-07-29T09:51:25;101673.53;;;27.56;47.28
82178;BME280;71761;21.336;-157.724;2023-07-29T09:53:51;101679.42;;;26.74;48.70
82178;BME280;71761;21.336;-157.724;2023-07-29T09:56:16;101681.16;;;26.86;48.50
82178;BME280;71761;21.336;-157.724;2023-07-29T09:58:44;101676.74;;;27.04;48.17
82178;BME280;71761;21.336;-157.724;2023-07-29T10:01:06;101676.11;;;27.17;48.13
82178;BME280;71761;21.336;-157.724;2023-07-29T10:03:32;101675.17;;;27.08;48.70
82178;BME280;71761;21.336;-157.724;2023-07-29T10:05:57;101677.79;;;26.70;48.95
82178;BME280;71761;21.336;-157.724;2023-07-29T10:08:23;101675.83;;;27.45;48.14
82178;BME280;71761;21.336;-157.724;2023-07-29T10:10:48;101677.61;;;27.44;47.59
82178;BME280;71761;21.336;-157.724;2023-07-29T10:13:13;101678.81;;;27.12;48.20
82178;BME280;71761;21.336;-157.724;2023-07-29T10:15:38;101671.91;;;27.08;48.18
82178;BME280;71761;21.336;-157.724;2023-07-29T10:18:03;101663.59;;;27.14;48.06
82178;BME280;71761;21.336;-157.724;2023-07-29T10:20:30;101656.50;;;26.86;48.46
82178;BME280;71761;21.336;-157.724;2023-07-29T10:22:59;101654.89;;;26.83;48.56
82178;BME280;71761;21.336;-157.724;2023-07-29T10:25:22;101656.24;;;26.60;49.02
82178;BME280;71761;21.336;-157.724;2023-07-29T10:27:49;101656.59;;;27.19;47.96
82178;BME280;71761;21.336;-157.724;2023-07-29T10:30:12;101654.19;;;27.27;47.71
82178;BME280;71761;21.336;-157.724;2023-07-29T10:32:37;101656.63;;;26.53;49.06
82178;BME280;71761;21.336;-157.724;2023-07-29T10:35:02;101651.14;;;27.18;47.91
82178;BME280;71761;21.336;-157.724;2023-07-29T10:37:28;101648.20;;;26.15;49.56
82178;BME280;71761;21.336;-157.724;2023-07-29T10:39:55;101642.31;;;27.67;47.01
82178;BME280;71761;21.336;-157.724;2023-07-29T10:42:18;101642.93;;;27.28;47.19
82178;BME280;71761;21.336;-157.724;2023-07-29T10:44:49;101647.87;;;27.50;48.10
82178;BME280;71761;21.336;-157.724;2023-07-29T10:47:13;101646.25;;;26.24;49.76
82178;BME280;71761;21.336;-157.724;2023-07-29T10:49:37;101646.20;;;26.58;49.61
82178;BME280;71761;21.336;-157.724;2023-07-29T10:52:00;101646.37;;;27.21;47.85
82178;BME280;71761;21.336;-157.724;2023-07-29T10:54:25;101640.67;;;27.28;47.71
82178;BME280;71761;21.336;-157.724;2023-07-29T10:56:51;101635.97;;;26.89;48.38
82178;BME280;71761;21.336;-157.724;2023-07-29T10:59:32;101633.15;;;26.99;48.01
82178;BME280;71761;21.336;-157.724;2023-07-29T11:01:43;101632.18;;;26.24;49.72
82178;BME280;71761;21.336;-157.724;2023-07-29T11:04:24;101630.92;;;26.56;48.96
82178;BME280;71761;21.336;-157.724;2023-07-29T11:06:32;101625.80;;;26.81;48.54
82178;BME280;71761;21.336;-157.724;2023-07-29T11:08:58;101625.57;;;27.27;48.60
82178;BME280;71761;21.336;-157.724;2023-07-29T11:11:23;101621.18;;;27.10;47.96
82178;BME280;71761;21.336;-157.724;2023-07-29T11:13:48;101624.73;;;27.07;48.06
82178;BME280;71761;21.336;-157.724;2023-07-29T11:16:17;101624.72;;;27.14;47.91
82178;BME280;71761;21.336;-157.724;2023-07-29T11:18:39;101623.96;;;26.57;49.13
82178;BME280;71761;21.336;-157.724;2023-07-29T11:21:05;101622.01;;;27.01;48.51
82178;BME280;71761;21.336;-157.724;2023-07-29T11:23:32;101623.68;;;26.97;48.25
82178;BME280;71761;21.336;-157.724;2023-07-29T11:25:55;101621.93;;;27.52;47.26
82178;BME280;71761;21.336;-157.724;2023-07-29T11:28:20;101621.32;;;27.02;48.08
82178;BME280;71761;21.336;-157.724;2023-07-29T11:30:46;101613.55;;;27.27;47.65
82178;BME280;71761;21.336;-157.724;2023-07-29T11:33:11;101610.88;;;26.66;49.03
82178;BME280;71761;21.336;-157.724;2023-07-29T11:35:37;101604.88;;;26.91;48.49
82178;BME280;71761;21.336;-157.724;2023-07-29T11:38:02;101597.72;;;27.40;47.89
82178;BME280;71761;21.336;-157.724;2023-07-29T11:40:27;101595.34;;;27.11;48.01
82178;BME280;71761;21.336;-157.724;2023-07-29T11:42:53;101593.93;;;27.03;48.27
82178;BME280;71761;21.336;-157.724;2023-07-29T11:45:19;101591.87;;;26.83;48.34
82178;BME280;71761;21.336;-157.724;2023-07-29T11:47:44;101590.09;;;26.98;48.41
82178;BME280;71761;21.336;-157.724;2023-07-29T11:50:10;101590.73;;;26.46;50.02
82178;BME280;71761;21.336;-157.724;2023-07-29T11:52:35;101587.30;;;26.36;49.27
82178;BME280;71761;21.336;-157.724;2023-07-29T11:55:01;101583.52;;;26.66;49.17
82178;BME280;71761;21.336;-157.724;2023-07-29T11:57:25;101582.82;;;26.28;49.78
82178;BME280;71761;21.336;-157.724;2023-07-29T11:59:52;101576.14;;;26.32;50.32
82178;BME280;71761;21.336;-157.724;2023-07-29T12:02:17;101567.16;;;26.97;49.02
82178;BME280;71761;21.336;-157.724;2023-07-29T12:04:43;101560.69;;;27.06;48.39
82178;BME280;71761;21.336;-157.724;2023-07-29T12:07:07;101559.60;;;26.81;48.34
82178;BME280;71761;21.336;-157.724;2023-07-29T12:09:33;101555.86;;;27.27;47.42
82178;BME280;71761;21.336;-157.724;2023-07-29T12:11:58;101551.11;;;26.85;48.35
82178;BME280;71761;21.336;-157.724;2023-07-29T12:14:25;101551.26;;;26.67;48.51